Time;durP1;ratioP1;P1;durP2;ratioP2;P2;SDS_P1;SDS_P2;PMS_P1;PMS_P2;Temp;Humidity;BMP_temperature;BMP_pressure;BME280_temperature;BME280_humidity;BME280_pressure;Samples;Min_cycle;Max_cycle;Signal;HPM_P1;HPM_P2
2022/12/04 00:00:40;;;;;;;;;;;2.60;99.90;;;;;;4916216;28;20036;-71
2022/12/04 00:03:11;;;;;;;;;;;2.50;99.90;;;;;;4917352;28;20037;-71
2022/12/04 00:05:47;;;;;;;;;;;2.50;99.90;;;;;;4899525;28;20010;-71
2022/12/04 00:08:16;;;;;;;;;;;2.50;99.90;;;;;;4911234;28;21347;-71
2022/12/04 00:10:43;;;;;;;;;;;2.40;99.90;;;;;;4917493;28;20041;-71
2022/12/04 00:13:18;;;;;;;;;;;2.40;99.90;;;;;;4895729;28;19926;-71
2022/12/04 00:15:48;;;;;;;;;;;2.50;99.90;;;;;;4890970;28;20275;-73
2022/12/04 00:18:23;;;;;;;;;;;2.50;99.90;;;;;;4915882;28;20590;-74
2022/12/04 00:21:12;;;;;;;;;;;2.50;99.90;;;;;;4923727;28;19931;-73
2022/12/04 00:23:42;;;;;;;;;;;2.50;99.90;;;;;;4913606;28;19938;-73
2022/12/04 00:26:13;;;;;;;;;;;2.40;99.90;;;;;;4905774;28;20025;-73
2022/12/04 00:28:44;;;;;;;;;;;2.50;99.90;;;;;;4907964;28;20139;-73
2022/12/04 00:31:14;;;;;;;;;;;2.40;99.90;;;;;;4911758;28;20025;-73
2022/12/04 00:33:58;;;;;;;;;;;2.50;99.90;;;;;;4913693;28;20815;-72
2022/12/04 00:36:33;;;;;;;;;;;2.40;99.90;;;;;;4910542;28;20170;-73
2022/12/04 00:39:13;;;;;;;;;;;2.40;99.90;;;;;;4923933;28;19949;-73
2022/12/04 00:41:57;;;;;;;;;;;2.40;99.90;;;;;;4914803;28;20543;-73
2022/12/04 00:44:27;;;;;;;;;;;2.30;99.90;;;;;;4908209;28;19938;-73
2022/12/04 00:46:56;;;;;;;;;;;2.50;99.90;;;;;;4913835;28;20722;-72
2022/12/04 00:49:23;;;;;;;;;;;2.40;99.90;;;;;;4914159;28;20241;-73
2022/12/04 00:51:50;;;;;;;;;;;2.40;99.90;;;;;;4915054;28;19942;-73
2022/12/04 00:54:23;;;;;;;;;;;2.40;99.90;;;;;;4910192;28;19953;-73
2022/12/04 00:56:59;;;;;;;;;;;2.40;99.90;;;;;;4909739;28;20094;-72
2022/12/04 00:59:26;;;;;;;;;;;2.40;99.90;;;;;;4911248;28;20009;-73
2022/12/04 01:01:53;;;;;;;;;;;2.40;99.90;;;;;;4912907;28;20404;-73
2022/12/04 01:04:31;;;;;;;;;;;2.40;99.90;;;;;;4910209;28;20096;-73
2022/12/04 01:07:03;;;;;;;;;;;2.40;99.90;;;;;;4915339;28;20037;-73
2022/12/04 01:10:00;;;;;;;;;;;2.40;99.90;;;;;;4907315;28;19931;-73
2022/12/04 01:12:28;;;;;;;;;;;2.40;99.90;;;;;;4907601;28;19927;-72
2022/12/04 01:14:55;;;;;;;;;;;2.40;99.90;;;;;;4896592;28;20154;-72
2022/12/04 01:17:22;;;;;;;;;;;2.40;99.90;;;;;;4914874;28;19934;-73
2022/12/04 01:19:49;;;;;;;;;;;2.40;99.90;;;;;;4917312;28;20187;-72
2022/12/04 01:22:16;;;;;;;;;;;2.40;99.90;;;;;;4917213;28;19937;-73
2022/12/04 01:24:54;;;;;;;;;;;2.40;99.90;;;;;;4905918;28;20148;-73
2022/12/04 01:27:21;;;;;;;;;;;2.40;99.90;;;;;;4924192;28;19934;-73
2022/12/04 01:29:51;;;;;;;;;;;2.40;99.90;;;;;;4919685;28;20460;-72
2022/12/04 01:32:27;;;;;;;;;;;2.40;99.90;;;;;;4908600;28;20077;-76
2022/12/04 01:34:54;;;;;;;;;;;2.40;99.90;;;;;;4918942;28;19937;-73
2022/12/04 01:37:24;;;;;;;;;;;2.40;99.90;;;;;;4919930;28;19930;-72
2022/12/04 01:39:56;;;;;;;;;;;2.40;99.90;;;;;;4921558;28;20288;-73
2022/12/04 01:42:31;;;;;;;;;;;2.40;99.90;;;;;;4931637;28;20747;-73
2022/12/04 01:45:16;;;;;;;;;;;2.40;99.90;;;;;;4913294;28;20341;-73
2022/12/04 01:47:54;;;;;;;;;;;2.40;99.90;;;;;;4920829;28;19935;-73
2022/12/04 01:50:21;;;;;;;;;;;2.40;99.90;;;;;;4917631;28;20680;-73
2022/12/04 01:52:48;;;;;;;;;;;2.40;99.90;;;;;;4898008;28;20013;-73
2022/12/04 01:55:18;;;;;;;;;;;2.40;99.90;;;;;;4920722;28;19938;-73
2022/12/04 01:57:45;;;;;;;;;;;2.40;99.90;;;;;;4919213;28;19931;-71
2022/12/04 02:00:17;;;;;;;;;;;2.40;99.90;;;;;;4918810;28;19926;-73
2022/12/04 02:02:51;;;;;;;;;;;2.40;99.90;;;;;;4897376;28;19935;-73
2022/12/04 02:05:20;;;;;;;;;;;2.40;99.90;;;;;;4915476;28;20004;-73
2022/12/04 02:07:49;;;;;;;;;;;2.40;99.90;;;;;;4917260;28;20820;-73
2022/12/04 02:10:26;;;;;;;;;;;2.40;99.90;;;;;;4903988;28;19985;-72
2022/12/04 02:12:59;;;;;;;;;;;2.30;99.90;;;;;;4899534;28;19973;-73
2022/12/04 02:15:38;;;;;;;;;;;2.40;99.90;;;;;;4917513;28;19938;-73
2022/12/04 02:18:11;;;;;;;;;;;2.40;99.90;;;;;;4907942;28;20330;-72
2022/12/04 02:20:46;;;;;;;;;;;2.40;99.90;;;;;;4893169;28;19934;-72
2022/12/04 02:23:34;;;;;;;;;;;2.30;99.90;;;;;;4910620;28;20088;-73
2022/12/04 02:26:10;;;;;;;;;;;2.40;99.90;;;;;;4906364;28;19937;-72
2022/12/04 02:28:55;;;;;;;;;;;2.30;99.90;;;;;;4886271;28;20017;-72
2022/12/04 02:31:36;;;;;;;;;;;2.30;99.90;;;;;;4913537;28;19926;-73
2022/12/04 02:34:28;;;;;;;;;;;2.30;99.90;;;;;;4912693;28;19937;-72
2022/12/04 02:37:13;;;;;;;;;;;2.30;99.90;;;;;;4910488;28;20216;-72
2022/12/04 02:39:45;;;;;;;;;;;2.30;99.90;;;;;;4919587;28;19931;-73
2022/12/04 02:42:14;;;;;;;;;;;2.30;99.90;;;;;;4917526;28;19938;-72
2022/12/04 02:44:47;;;;;;;;;;;2.30;99.90;;;;;;4911552;28;20583;-73
2022/12/04 02:47:20;;;;;;;;;;;2.30;99.90;;;;;;4902542;28;20596;-73
2022/12/04 02:49:57;;;;;;;;;;;2.30;99.90;;;;;;4916591;28;19938;-72
2022/12/04 02:52:29;;;;;;;;;;;2.30;99.90;;;;;;4899451;28;19931;-73
2022/12/04 02:55:03;;;;;;;;;;;2.30;99.90;;;;;;4917797;28;20170;-73
2022/12/04 02:57:33;;;;;;;;;;;2.30;99.90;;;;;;4919056;28;20015;-73
2022/12/04 03:00:07;;;;;;;;;;;2.30;99.90;;;;;;4902586;29;19930;-73
2022/12/04 03:02:37;;;;;;;;;;;2.30;99.90;;;;;;4911453;28;19938;-73
2022/12/04 03:05:18;;;;;;;;;;;2.30;99.90;;;;;;4914733;28;20311;-72
2022/12/04 03:07:58;;;;;;;;;;;2.40;99.90;;;;;;4909774;28;20018;-73
2022/12/04 03:10:33;;;;;;;;;;;2.30;99.90;;;;;;4905158;28;20083;-73
2022/12/04 03:13:03;;;;;;;;;;;2.30;99.90;;;;;;4911969;28;20133;-72
2022/12/04 03:15:33;;;;;;;;;;;2.30;99.90;;;;;;4916929;28;20003;-71
2022/12/04 03:18:05;;;;;;;;;;;2.30;99.90;;;;;;4913271;28;19930;-72
2022/12/04 03:20:34;;;;;;;;;;;2.30;99.90;;;;;;4916850;28;19937;-72
2022/12/04 03:23:10;;;;;;;;;;;2.30;99.90;;;;;;4915210;28;20702;-73
2022/12/04 03:25:50;;;;;;;;;;;2.30;99.90;;;;;;4919934;28;19934;-72
2022/12/04 03:28:29;;;;;;;;;;;2.30;99.90;;;;;;4910654;28;20443;-72
2022/12/04 03:31:02;;;;;;;;;;;2.30;99.90;;;;;;4903280;28;20037;-72
2022/12/04 03:33:38;;;;;;;;;;;2.30;99.90;;;;;;4921855;28;19933;-72
2022/12/04 03:36:09;;;;;;;;;;;2.30;99.90;;;;;;4904794;28;19942;-72
2022/12/04 03:38:44;;;;;;;;;;;2.30;99.90;;;;;;4892641;28;20062;-72
2022/12/04 03:41:16;;;;;;;;;;;2.30;99.90;;;;;;4905566;28;20118;-72
2022/12/04 03:44:08;;;;;;;;;;;2.30;99.90;;;;;;4892240;28;20137;-72
2022/12/04 03:46:55;;;;;;;;;;;2.30;99.90;;;;;;4905308;28;19926;-72
2022/12/04 03:49:37;;;;;;;;;;;2.30;99.90;;;;;;4889538;28;19936;-75
2022/12/04 03:52:15;;;;;;;;;;;2.30;99.90;;;;;;4896687;28;20403;-72
2022/12/04 03:54:44;;;;;;;;;;;2.30;99.90;;;;;;4887627;28;20155;-72
2022/12/04 04:00:00;;;;;;;;;;;2.30;99.90;;;;;;4907096;28;19937;-72
2022/12/04 04:02:35;;;;;;;;;;;2.30;99.90;;;;;;4910008;28;19934;-72
2022/12/04 04:05:20;;;;;;;;;;;2.30;99.90;;;;;;4911046;28;20128;-72
2022/12/04 04:07:52;;;;;;;;;;;2.30;99.90;;;;;;4911553;28;19931;-72
2022/12/04 04:10:32;;;;;;;;;;;2.30;99.90;;;;;;4914318;28;19926;-72
2022/12/04 04:24:35;;;;;;;;;;;2.30;99.90;;;;;;4907630;28;20162;-72
2022/12/04 04:27:02;;;;;;;;;;;2.30;99.90;;;;;;4895011;28;19990;-72
2022/12/04 04:29:40;;;;;;;;;;;2.30;99.90;;;;;;4909835;28;20090;-72
2022/12/04 04:32:43;;;;;;;;;;;2.20;99.90;;;;;;4920428;28;19930;-72
2022/12/04 04:35:16;;;;;;;;;;;2.30;99.90;;;;;;4915147;28;19930;-72
2022/12/04 04:37:53;;;;;;;;;;;2.30;99.90;;;;;;4904363;28;20145;-72
2022/12/04 04:40:26;;;;;;;;;;;2.30;99.90;;;;;;4914666;28;19930;-72
2022/12/04 04:43:02;;;;;;;;;;;2.20;99.90;;;;;;4912574;28;21313;-72
2022/12/04 04:45:34;;;;;;;;;;;2.30;99.90;;;;;;4910307;28;20407;-72
2022/12/04 04:48:03;;;;;;;;;;;2.20;99.90;;;;;;4911944;28;19931;-72
2022/12/04 04:50:34;;;;;;;;;;;2.20;99.90;;;;;;4911054;28;20081;-72
2022/12/04 04:53:13;;;;;;;;;;;2.20;99.90;;;;;;4913108;28;20173;-72
2022/12/04 04:55:44;;;;;;;;;;;2.20;99.90;;;;;;4909499;28;20031;-72
2022/12/04 04:58:12;;;;;;;;;;;2.20;99.90;;;;;;4912801;28;20247;-72
2022/12/04 05:00:46;;;;;;;;;;;2.20;99.90;;;;;;4914761;28;20269;-72
2022/12/04 05:03:13;;;;;;;;;;;2.20;99.90;;;;;;4912743;28;19935;-72
2022/12/04 05:05:58;;;;;;;;;;;2.30;99.90;;;;;;4912155;28;20041;-72
2022/12/04 05:08:28;;;;;;;;;;;2.30;99.90;;;;;;4911271;28;19930;-72
2022/12/04 05:10:58;;;;;;;;;;;2.30;99.90;;;;;;4913478;28;19930;-72
2022/12/04 05:13:27;;;;;;;;;;;2.30;99.90;;;;;;4910642;28;19937;-72
2022/12/04 05:15:57;;;;;;;;;;;2.30;99.90;;;;;;4914329;28;20049;-72
2022/12/04 05:18:24;;;;;;;;;;;2.20;99.90;;;;;;4912097;28;20066;-72
2022/12/04 05:20:50;;;;;;;;;;;2.30;99.90;;;;;;4914895;28;19940;-72
2022/12/04 05:23:20;;;;;;;;;;;2.30;99.90;;;;;;4950316;22;19934;-74
2022/12/04 05:26:04;;;;;;;;;;;2.30;99.90;;;;;;4940462;28;19990;-74
2022/12/04 05:28:46;;;;;;;;;;;2.30;99.90;;;;;;4943699;28;20750;-74
2022/12/04 05:31:28;;;;;;;;;;;2.30;99.90;;;;;;4946528;28;20033;-72
2022/12/04 05:34:22;;;;;;;;;;;2.30;99.90;;;;;;4935819;28;20085;-72
2022/12/04 05:37:04;;;;;;;;;;;2.30;99.90;;;;;;4943957;28;20101;-72
2022/12/04 05:39:34;;;;;;;;;;;2.30;99.90;;;;;;4947466;28;20246;-72
2022/12/04 05:42:13;;;;;;;;;;;2.30;99.90;;;;;;4942441;28;19976;-73
2022/12/04 05:44:40;;;;;;;;;;;2.30;99.90;;;;;;4949678;28;19940;-72
2022/12/04 05:47:07;;;;;;;;;;;2.30;99.90;;;;;;4927944;28;20170;-72
2022/12/04 05:49:46;;;;;;;;;;;2.30;99.90;;;;;;4952504;28;20144;-72
2022/12/04 05:54:59;;;;;;;;;;;2.30;99.90;;;;;;4964670;28;19926;-73
2022/12/04 05:57:27;;;;;;;;;;;2.30;99.90;;;;;;4974507;28;19930;-73
2022/12/04 06:00:00;;;;;;;;;;;2.30;99.90;;;;;;4958797;28;19992;-72
2022/12/04 06:02:29;;;;;;;;;;;2.30;99.90;;;;;;4947042;28;20028;-72
2022/12/04 06:05:01;;;;;;;;;;;2.30;99.90;;;;;;4944896;28;19929;-72
2022/12/04 06:07:30;;;;;;;;;;;2.30;99.90;;;;;;4949118;28;19942;-72
2022/12/04 06:10:15;;;;;;;;;;;2.30;99.90;;;;;;4948804;28;19936;-72
2022/12/04 06:12:44;;;;;;;;;;;2.30;99.90;;;;;;4950662;28;19940;-72
2022/12/04 06:15:14;;;;;;;;;;;2.30;99.90;;;;;;4967732;28;20021;-72
2022/12/04 06:17:41;;;;;;;;;;;2.30;99.90;;;;;;4943554;28;20222;-72
2022/12/04 06:20:16;;;;;;;;;;;2.40;99.90;;;;;;4947737;28;19930;-72
2022/12/04 06:22:42;;;;;;;;;;;2.30;99.90;;;;;;4954769;28;20125;-72
2022/12/04 06:25:14;;;;;;;;;;;2.30;99.90;;;;;;4954545;28;19937;-72
2022/12/04 06:27:43;;;;;;;;;;;2.40;99.90;;;;;;4950521;28;20150;-72
2022/12/04 06:30:30;;;;;;;;;;;2.30;99.90;;;;;;4943029;28;20232;-72
2022/12/04 06:33:03;;;;;;;;;;;2.30;99.90;;;;;;4927733;28;19937;-73
2022/12/04 06:35:33;;;;;;;;;;;2.30;99.90;;;;;;4961696;28;20180;-72
2022/12/04 06:38:07;;;;;;;;;;;2.30;99.90;;;;;;4947858;28;19930;-71
2022/12/04 06:40:39;;;;;;;;;;;2.30;99.90;;;;;;4950390;28;20727;-75
2022/12/04 06:43:06;;;;;;;;;;;2.30;99.90;;;;;;4945437;28;19930;-73
2022/12/04 06:45:38;;;;;;;;;;;2.30;99.90;;;;;;4950286;28;19967;-72
2022/12/04 06:48:06;;;;;;;;;;;2.40;99.90;;;;;;4951678;28;20523;-72
2022/12/04 06:50:39;;;;;;;;;;;2.30;99.90;;;;;;4932898;28;20089;-72
2022/12/04 06:53:06;;;;;;;;;;;2.30;99.90;;;;;;4946448;28;19968;-72
2022/12/04 06:55:33;;;;;;;;;;;2.30;99.90;;;;;;4952909;28;19965;-72
2022/12/04 06:58:07;;;;;;;;;;;2.30;99.90;;;;;;4954675;28;20107;-72
2022/12/04 07:00:39;;;;;;;;;;;2.30;99.90;;;;;;4933811;28;20402;-73
2022/12/04 07:03:06;;;;;;;;;;;2.30;99.90;;;;;;4946361;28;19937;-72
2022/12/04 07:05:33;;;;;;;;;;;2.30;99.90;;;;;;4949726;28;20634;-72
2022/12/04 07:08:06;;;;;;;;;;;2.30;99.90;;;;;;4936632;28;19934;-72
2022/12/04 07:10:36;;;;;;;;;;;2.30;99.90;;;;;;4948770;28;19969;-72
2022/12/04 07:13:17;;;;;;;;;;;2.30;99.90;;;;;;4948774;28;20845;-73
2022/12/04 07:15:48;;;;;;;;;;;2.40;99.90;;;;;;4943999;28;20105;-72
2022/12/04 07:18:17;;;;;;;;;;;2.30;99.90;;;;;;4947506;28;20091;-72
2022/12/04 07:20:54;;;;;;;;;;;2.30;99.90;;;;;;4951506;28;20097;-72
2022/12/04 07:23:23;;;;;;;;;;;2.30;99.90;;;;;;4943705;28;19941;-72
2022/12/04 07:25:54;;;;;;;;;;;2.40;99.90;;;;;;4946734;28;20020;-72
2022/12/04 07:28:21;;;;;;;;;;;2.30;99.90;;;;;;4946993;28;19934;-72
2022/12/04 07:30:52;;;;;;;;;;;2.30;99.90;;;;;;4950373;28;20140;-73
2022/12/04 07:33:20;;;;;;;;;;;2.30;99.90;;;;;;4927328;28;20416;-73
2022/12/04 07:35:54;;;;;;;;;;;2.30;99.90;;;;;;4930624;28;20392;-73
2022/12/04 07:38:25;;;;;;;;;;;2.30;99.90;;;;;;4944865;28;19977;-73
2022/12/04 07:41:05;;;;;;;;;;;2.40;99.90;;;;;;4939932;28;19929;-73
2022/12/04 07:43:34;;;;;;;;;;;2.40;99.90;;;;;;4944333;28;20003;-73
2022/12/04 07:46:08;;;;;;;;;;;2.30;99.90;;;;;;4946111;28;20148;-73
2022/12/04 07:48:38;;;;;;;;;;;2.40;99.90;;;;;;4946181;28;20239;-74
2022/12/04 07:51:17;;;;;;;;;;;2.40;99.90;;;;;;4951625;28;20557;-73
2022/12/04 07:53:49;;;;;;;;;;;2.40;99.90;;;;;;4951671;28;20287;-73
2022/12/04 07:56:25;;;;;;;;;;;2.40;99.90;;;;;;4954383;28;20593;-73
2022/12/04 07:58:58;;;;;;;;;;;2.40;99.90;;;;;;4953359;28;20024;-73
2022/12/04 08:01:33;;;;;;;;;;;2.40;99.90;;;;;;4955359;28;20016;-73
2022/12/04 08:04:07;;;;;;;;;;;2.40;99.90;;;;;;4941679;28;20130;-73
2022/12/04 08:06:37;;;;;;;;;;;2.40;99.90;;;;;;4960120;28;19929;-73
2022/12/04 08:09:11;;;;;;;;;;;2.40;99.90;;;;;;4947235;28;20687;-73
2022/12/04 08:11:41;;;;;;;;;;;2.40;99.90;;;;;;4944916;28;20028;-73
2022/12/04 08:14:14;;;;;;;;;;;2.40;99.90;;;;;;4949527;28;20060;-73
2022/12/04 08:19:35;;;;;;;;;;;2.40;99.90;;;;;;4917402;28;20009;-73
2022/12/04 08:22:05;;;;;;;;;;;2.40;99.90;;;;;;4943932;28;20152;-73
2022/12/04 08:24:32;;;;;;;;;;;2.50;99.90;;;;;;4947255;28;19940;-73
2022/12/04 08:26:59;;;;;;;;;;;2.40;99.90;;;;;;4950226;28;20733;-73
2022/12/04 08:29:26;;;;;;;;;;;2.40;99.90;;;;;;4943283;28;20648;-73
2022/12/04 08:31:57;;;;;;;;;;;2.40;99.90;;;;;;4934597;28;20284;-73
2022/12/04 08:34:33;;;;;;;;;;;2.50;99.90;;;;;;4921701;28;22580;-71
2022/12/04 08:37:00;;;;;;;;;;;2.40;99.90;;;;;;4945988;28;19969;-73
2022/12/04 08:39:27;;;;;;;;;;;2.40;99.90;;;;;;4935014;28;19950;-71
2022/12/04 08:41:56;;;;;;;;;;;2.40;99.90;;;;;;4962501;28;21464;-72
2022/12/04 08:44:23;;;;;;;;;;;2.40;99.90;;;;;;4926270;28;20530;-71
2022/12/04 08:49:32;;;;;;;;;;;2.50;99.90;;;;;;4947107;28;19933;-72
2022/12/04 08:52:01;;;;;;;;;;;2.30;99.90;;;;;;4942274;28;19937;-73
2022/12/04 08:54:31;;;;;;;;;;;2.50;99.90;;;;;;4950996;28;19972;-73
2022/12/04 08:57:17;;;;;;;;;;;2.50;99.90;;;;;;4946698;28;19934;-72
2022/12/04 08:59:48;;;;;;;;;;;2.50;99.90;;;;;;4933692;28;19965;-72
2022/12/04 09:05:00;;;;;;;;;;;2.50;99.90;;;;;;4942345;28;20289;-73
2022/12/04 09:07:41;;;;;;;;;;;2.50;99.90;;;;;;4926679;28;20000;-72
2022/12/04 09:10:08;;;;;;;;;;;2.50;99.90;;;;;;4943882;28;19930;-72
2022/12/04 09:12:38;;;;;;;;;;;2.50;99.90;;;;;;4943855;28;20021;-73
2022/12/04 09:15:08;;;;;;;;;;;2.50;99.90;;;;;;4942917;28;20168;-72
2022/12/04 09:17:35;;;;;;;;;;;2.50;99.90;;;;;;4942867;28;20193;-72
2022/12/04 09:20:08;;;;;;;;;;;2.50;99.90;;;;;;4938471;28;20209;-71
2022/12/04 09:22:39;;;;;;;;;;;2.50;99.90;;;;;;4933880;28;20009;-72
2022/12/04 09:25:12;;;;;;;;;;;2.50;99.90;;;;;;4933279;28;20141;-70
2022/12/04 09:27:44;;;;;;;;;;;2.40;99.90;;;;;;4924116;28;20735;-71
2022/12/04 09:30:20;;;;;;;;;;;2.40;99.90;;;;;;4938376;28;20539;-70
2022/12/04 09:32:50;;;;;;;;;;;2.40;99.90;;;;;;4925975;28;20104;-72
2022/12/04 09:35:18;;;;;;;;;;;2.40;99.90;;;;;;4932749;28;19953;-70
2022/12/04 09:37:57;;;;;;;;;;;2.50;99.90;;;;;;4927350;28;19933;-75
2022/12/04 09:40:26;;;;;;;;;;;2.50;99.90;;;;;;4937993;28;20115;-71
2022/12/04 09:43:02;;;;;;;;;;;2.50;99.90;;;;;;4935221;28;19930;-80
2022/12/04 09:45:45;;;;;;;;;;;2.60;99.90;;;;;;4929889;28;20265;-71
2022/12/04 09:48:20;;;;;;;;;;;2.50;99.90;;;;;;4933890;28;20096;-71
2022/12/04 09:50:52;;;;;;;;;;;2.50;99.90;;;;;;4930370;28;20435;-71
2022/12/04 09:53:30;;;;;;;;;;;2.50;99.90;;;;;;4952573;28;20104;-71
2022/12/04 09:56:02;;;;;;;;;;;2.50;99.90;;;;;;4933048;28;20426;-70
2022/12/04 09:58:46;;;;;;;;;;;2.40;99.90;;;;;;4940975;28;20157;-71
2022/12/04 10:01:19;;;;;;;;;;;2.60;99.90;;;;;;4941096;28;19930;-71
2022/12/04 10:03:49;;;;;;;;;;;2.50;99.90;;;;;;4964084;28;20044;-71
2022/12/04 10:06:20;;;;;;;;;;;2.50;99.90;;;;;;4946710;28;19941;-71
2022/12/04 10:08:50;;;;;;;;;;;2.50;99.90;;;;;;4961182;28;20016;-70
2022/12/04 10:11:33;;;;;;;;;;;2.50;99.90;;;;;;4946957;28;20101;-71
2022/12/04 10:14:14;;;;;;;;;;;2.50;99.90;;;;;;4936350;28;19926;-71
2022/12/04 10:17:00;;;;;;;;;;;2.50;99.90;;;;;;4931888;28;20100;-71
2022/12/04 10:19:41;;;;;;;;;;;2.60;99.90;;;;;;4940209;28;20690;-71
2022/12/04 10:22:23;;;;;;;;;;;2.60;99.90;;;;;;4941918;28;19934;-70
2022/12/04 10:27:41;;;;;;;;;;;2.60;99.90;;;;;;4907946;28;19938;-70
2022/12/04 10:30:18;;;;;;;;;;;2.60;99.90;;;;;;4931992;28;19933;-70
2022/12/04 10:33:04;;;;;;;;;;;2.60;99.90;;;;;;4932059;28;20609;-70
2022/12/04 10:35:45;;;;;;;;;;;2.60;99.90;;;;;;4937864;28;20111;-71
2022/12/04 10:38:25;;;;;;;;;;;2.60;99.90;;;;;;4928860;28;21555;-70
2022/12/04 10:41:02;;;;;;;;;;;2.60;99.90;;;;;;4935945;28;19948;-77
2022/12/04 10:43:36;;;;;;;;;;;2.60;99.90;;;;;;4897188;28;20672;-71
2022/12/04 10:46:06;;;;;;;;;;;2.60;99.90;;;;;;4925107;28;21667;-71
2022/12/04 10:48:56;;;;;;;;;;;2.60;99.90;;;;;;4908002;28;19940;-70
2022/12/04 10:51:23;;;;;;;;;;;2.60;99.90;;;;;;4927483;28;20082;-71
2022/12/04 10:53:51;;;;;;;;;;;2.60;99.90;;;;;;4922567;28;20292;-71
2022/12/04 10:56:32;;;;;;;;;;;2.60;99.90;;;;;;4925430;28;20339;-70
2022/12/04 10:59:00;;;;;;;;;;;2.60;99.90;;;;;;4927216;28;20020;-74
2022/12/04 11:01:28;;;;;;;;;;;2.60;99.90;;;;;;4937247;28;19930;-69
2022/12/04 11:04:22;;;;;;;;;;;2.60;99.90;;;;;;4935398;28;19926;-70
2022/12/04 11:07:00;;;;;;;;;;;2.60;99.90;;;;;;4920362;28;20138;-70
2022/12/04 11:09:31;;;;;;;;;;;2.60;99.90;;;;;;4912896;28;20029;-70
2022/12/04 11:12:18;;;;;;;;;;;2.60;99.90;;;;;;4932483;28;19930;-70
2022/12/04 11:17:47;;;;;;;;;;;2.60;99.90;;;;;;5139160;22;20194;-70
2022/12/04 11:20:16;;;;;;;;;;;2.60;99.90;;;;;;4949386;28;19929;-70
2022/12/04 11:22:49;;;;;;;;;;;2.50;99.90;;;;;;4945379;28;20740;-70
2022/12/04 11:25:21;;;;;;;;;;;2.50;99.90;;;;;;4934187;28;19936;-70
2022/12/04 11:28:05;;;;;;;;;;;2.60;99.90;;;;;;4919573;28;20389;-70
2022/12/04 11:30:49;;;;;;;;;;;;;;;;;;;;;
2022/12/04 11:33:42;;;;;;;;;;;2.60;99.90;;;;;;4909181;28;20051;-70
2022/12/04 11:36:23;;;;;;;;;;;2.60;99.90;;;;;;4909475;28;20167;-70
2022/12/04 11:38:51;;;;;;;;;;;2.60;99.90;;;;;;4934210;28;20489;-71
2022/12/04 11:41:28;;;;;;;;;;;2.60;99.90;;;;;;4942288;28;20565;-70
2022/12/04 11:44:07;;;;;;;;;;;2.50;99.90;;;;;;4939610;28;20513;-71
2022/12/04 11:46:35;;;;;;;;;;;2.60;99.90;;;;;;4935579;28;19929;-71
2022/12/04 11:49:20;;;;;;;;;;;2.60;99.90;;;;;;4930394;28;20453;-69
2022/12/04 11:51:52;;;;;;;;;;;2.60;99.90;;;;;;4943845;28;20376;-71
2022/12/04 11:54:23;;;;;;;;;;;2.60;99.90;;;;;;4952788;28;20246;-70
2022/12/04 11:57:03;;;;;;;;;;;2.60;99.90;;;;;;4954364;28;20000;-71
2022/12/04 11:59:48;;;;;;;;;;;2.60;99.90;;;;;;4939186;28;20417;-72
2022/12/04 12:02:36;;;;;;;;;;;2.60;99.90;;;;;;4936668;28;20000;-72
2022/12/04 12:05:23;;;;;;;;;;;2.60;99.90;;;;;;4939206;28;19934;-71
2022/12/04 12:08:02;;;;;;;;;;;2.60;99.90;;;;;;4933243;28;20327;-69
2022/12/04 12:10:42;;;;;;;;;;;2.60;99.90;;;;;;4936462;28;20142;-69
2022/12/04 12:13:16;;;;;;;;;;;2.60;99.90;;;;;;4910188;28;19929;-70
2022/12/04 12:16:08;;;;;;;;;;;2.60;99.90;;;;;;4908140;28;20880;-70
2022/12/04 12:18:56;;;;;;;;;;;2.50;99.90;;;;;;4906496;28;19926;-70
2022/12/04 12:21:39;;;;;;;;;;;2.60;99.90;;;;;;4915418;28;20020;-69
2022/12/04 12:24:27;;;;;;;;;;;2.60;99.90;;;;;;4915627;28;19965;-69
2022/12/04 12:27:01;;;;;;;;;;;2.60;99.90;;;;;;4943777;28;19937;-77
2022/12/04 12:32:34;;;;;;;;;;;2.60;99.90;;;;;;4918640;28;20060;-71
2022/12/04 12:35:08;;;;;;;;;;;2.60;99.90;;;;;;4910541;28;20830;-72
2022/12/04 12:37:44;;;;;;;;;;;2.50;99.90;;;;;;4915721;28;20035;-71
2022/12/04 12:40:26;;;;;;;;;;;2.60;99.90;;;;;;4918768;28;19952;-90
2022/12/04 12:43:03;;;;;;;;;;;2.60;99.90;;;;;;4926525;28;20177;-70
2022/12/04 12:45:35;;;;;;;;;;;2.60;99.90;;;;;;4917492;28;19934;-72
2022/12/04 12:48:11;;;;;;;;;;;2.50;99.90;;;;;;4910028;28;19930;-70
2022/12/04 12:50:51;;;;;;;;;;;2.60;99.90;;;;;;4918256;28;19957;-70
2022/12/04 12:53:20;;;;;;;;;;;2.70;99.90;;;;;;4913840;28;19934;-70
2022/12/04 12:55:50;;;;;;;;;;;2.60;99.90;;;;;;4921513;28;20179;-74
2022/12/04 12:58:21;;;;;;;;;;;2.60;99.90;;;;;;4926880;28;20865;-70
2022/12/04 13:03:43;;;;;;;;;;;2.60;99.90;;;;;;4908132;28;20332;-80
2022/12/04 13:06:16;;;;;;;;;;;2.70;99.90;;;;;;4933094;23;20088;-72
2022/12/04 13:08:56;;;;;;;;;;;2.70;99.90;;;;;;4924721;28;20079;-73
2022/12/04 13:11:26;;;;;;;;;;;2.60;99.90;;;;;;4923220;28;19973;-72
2022/12/04 13:14:14;;;;;;;;;;;2.60;99.90;;;;;;4913648;28;19929;-72
2022/12/04 13:16:54;;;;;;;;;;;2.70;99.90;;;;;;4908720;28;21059;-70
2022/12/04 13:19:25;;;;;;;;;;;2.60;99.90;;;;;;4897141;28;19930;-70
2022/12/04 13:21:59;;;;;;;;;;;2.70;99.90;;;;;;4919273;28;19938;-70
2022/12/04 13:24:44;;;;;;;;;;;2.60;99.90;;;;;;4905816;28;20023;-71
2022/12/04 13:27:21;;;;;;;;;;;2.60;99.90;;;;;;4865425;28;20149;-71
2022/12/04 13:30:15;;;;;;;;;;;2.60;99.90;;;;;;4910724;28;20705;-71
2022/12/04 13:33:06;;;;;;;;;;;2.70;99.90;;;;;;4912165;28;19990;-70
2022/12/04 13:35:54;;;;;;;;;;;2.60;99.90;;;;;;4903014;28;20312;-70
2022/12/04 13:38:42;;;;;;;;;;;2.70;99.90;;;;;;4898428;28;20200;-77
2022/12/04 13:41:13;;;;;;;;;;;2.70;99.90;;;;;;4903908;28;19936;-70
2022/12/04 13:43:48;;;;;;;;;;;2.70;99.90;;;;;;4914809;28;20080;-71
2022/12/04 13:46:28;;;;;;;;;;;2.70;99.90;;;;;;4924830;28;19968;-71
2022/12/04 13:49:09;;;;;;;;;;;2.70;99.90;;;;;;4911828;28;19930;-71
2022/12/04 13:51:44;;;;;;;;;;;2.60;99.90;;;;;;4941956;28;19930;-71
2022/12/04 13:54:28;;;;;;;;;;;2.70;99.90;;;;;;4922764;28;23568;-71
2022/12/04 13:56:56;;;;;;;;;;;2.70;99.90;;;;;;4934920;28;20406;-73
2022/12/04 13:59:37;;;;;;;;;;;2.70;99.90;;;;;;4934008;28;20403;-72
2022/12/04 14:02:36;;;;;;;;;;;2.80;99.90;;;;;;4937928;28;20262;-70
2022/12/04 14:05:11;;;;;;;;;;;2.70;99.90;;;;;;4872878;29;19935;-72
2022/12/04 14:07:40;;;;;;;;;;;2.70;99.90;;;;;;4928721;28;20056;-70
2022/12/04 14:13:19;;;;;;;;;;;2.70;99.90;;;;;;5060899;27;20154;-71
2022/12/04 14:16:05;;;;;;;;;;;2.80;99.90;;;;;;5040496;28;20140;-72
2022/12/04 14:18:32;;;;;;;;;;;2.70;99.90;;;;;;5023887;28;19932;-73
2022/12/04 14:21:11;;;;;;;;;;;2.70;99.90;;;;;;5019549;28;19934;-73
2022/12/04 14:23:46;;;;;;;;;;;2.70;99.90;;;;;;5026895;28;20413;-70
2022/12/04 14:26:30;;;;;;;;;;;2.70;99.90;;;;;;5017218;28;19924;-71
2022/12/04 14:29:12;;;;;;;;;;;2.70;99.90;;;;;;5011711;28;20521;-71
2022/12/04 14:31:48;;;;;;;;;;;2.80;99.90;;;;;;5008503;28;20022;-70
2022/12/04 14:34:39;;;;;;;;;;;2.70;99.90;;;;;;5018393;28;20390;-70
2022/12/04 14:43:22;;;;;;;;;;;2.70;99.90;;;;;;5032094;28;20196;-70
2022/12/04 14:45:54;;;;;;;;;;;2.70;99.90;;;;;;5028280;27;20609;-72
2022/12/04 14:48:31;;;;;;;;;;;2.70;99.90;;;;;;5022090;28;20218;-70
2022/12/04 14:51:10;;;;;;;;;;;2.70;99.90;;;;;;5025184;28;19936;-70
2022/12/04 14:53:50;;;;;;;;;;;2.70;99.90;;;;;;5026330;28;20421;-71
2022/12/04 14:56:30;;;;;;;;;;;2.70;99.90;;;;;;5029341;28;19928;-70
2022/12/04 14:59:10;;;;;;;;;;;2.70;99.90;;;;;;5019403;28;20143;-70
2022/12/04 15:01:38;;;;;;;;;;;2.60;99.90;;;;;;5028654;28;20453;-70
2022/12/04 15:04:22;;;;;;;;;;;2.80;99.90;;;;;;5012852;28;19932;-72
2022/12/04 15:06:50;;;;;;;;;;;2.80;99.90;;;;;;5016856;28;20171;-71
2022/12/04 15:14:59;;;;;;;;;;;2.80;99.90;;;;;;5017935;28;20418;-72
2022/12/04 15:17:37;;;;;;;;;;;2.80;99.90;;;;;;5030561;28;20134;-72
2022/12/04 15:20:15;;;;;;;;;;;2.80;99.90;;;;;;5038515;27;20205;-70
2022/12/04 15:22:52;;;;;;;;;;;2.80;99.90;;;;;;5016408;28;21238;-70
2022/12/04 15:28:20;;;;;;;;;;;2.80;99.90;;;;;;5015032;28;20005;-70
2022/12/04 15:30:47;;;;;;;;;;;2.80;99.90;;;;;;5011283;28;20097;-72
2022/12/04 15:36:28;;;;;;;;;;;2.70;99.90;;;;;;4994542;28;19928;-72
2022/12/04 15:39:19;;;;;;;;;;;2.70;99.90;;;;;;5000588;28;19932;-70
2022/12/04 15:41:52;;;;;;;;;;;2.70;99.90;;;;;;5029204;28;19932;-77
2022/12/04 15:44:30;;;;;;;;;;;2.70;99.90;;;;;;5030113;28;20399;-72
2022/12/04 15:46:58;;;;;;;;;;;2.70;99.90;;;;;;5035059;22;20546;-70
2022/12/04 15:55:41;;;;;;;;;;;2.70;99.90;;;;;;4980075;28;19936;-73
2022/12/04 15:58:18;;;;;;;;;;;2.80;99.90;;;;;;5024544;28;20424;-72
2022/12/04 16:01:20;;;;;;;;;;;2.80;99.90;;;;;;5023895;28;20441;-70
2022/12/04 16:03:51;;;;;;;;;;;2.80;99.90;;;;;;5023882;28;20015;-71
2022/12/04 16:06:42;;;;;;;;;;;2.80;99.90;;;;;;5032944;28;19928;-69
2022/12/04 16:09:21;;;;;;;;;;;2.80;99.90;;;;;;5018988;28;20020;-70
2022/12/04 16:12:06;;;;;;;;;;;2.70;99.90;;;;;;5025037;28;19928;-69
2022/12/04 16:14:40;;;;;;;;;;;2.80;99.90;;;;;;5000351;28;19928;-69
2022/12/04 16:17:28;;;;;;;;;;;2.70;99.90;;;;;;4999710;28;19932;-69
2022/12/04 16:22:43;;;;;;;;;;;2.80;99.90;;;;;;5005686;28;19928;-69